Time;durP1;ratioP1;P1;durP2;ratioP2;P2;SDS_P1;SDS_P2;PMS_P1;PMS_P2;Temp;Humidity;BMP_temperature;BMP_pressure;BME280_temperature;BME280_humidity;BME280_pressure;Samples;Min_cycle;Max_cycle;Signal;HPM_P1;HPM_P2
2022/12/18 00:02:23;;;;;;;47.57;16.80;;;-3.70;99.90;;;;;;5114716;27;20458;-82
2022/12/18 00:04:49;;;;;;;44.83;16.57;;;-0.60;99.90;;;;;;5122030;27;20039;-82
2022/12/18 00:07:15;;;;;;;54.47;18.00;;;-3.10;99.90;;;;;;5113408;27;20035;-81
2022/12/18 00:09:40;;;;;;;51.73;16.00;;;-3.70;99.90;;;;;;5130526;27;20035;-85
2022/12/18 00:12:07;;;;;;;47.23;17.77;;;-2.10;99.90;;;;;;5139175;27;20034;-85
2022/12/18 00:14:32;;;;;;;48.50;17.10;;;-3.70;99.90;;;;;;5104576;27;20094;-85
2022/12/18 00:17:00;;;;;;;48.23;16.40;;;-3.70;99.90;;;;;;5104022;27;20130;-85
2022/12/18 00:19:26;;;;;;;45.80;16.50;;;;;;;;;;5087804;27;20035;-81
2022/12/18 00:21:52;;;;;;;50.97;17.13;;;-3.70;99.90;;;;;;5121157;27;20122;-81
2022/12/18 00:24:18;;;;;;;51.07;18.03;;;-3.80;99.90;;;;;;5103768;27;20191;-81
2022/12/18 00:26:44;;;;;;;47.20;17.50;;;-3.80;99.90;;;;;;5104138;27;20042;-81
2022/12/18 00:29:13;;;;;;;55.83;17.50;;;-3.90;99.90;;;;;;5133097;27;20031;-81
2022/12/18 00:31:40;;;;;;;59.20;17.87;;;-3.90;99.90;;;;;;5112383;27;20037;-81
2022/12/18 00:34:06;;;;;;;53.63;16.53;;;-3.90;99.90;;;;;;5083860;27;20035;-81
2022/12/18 00:36:34;;;;;;;45.73;16.43;;;-4.00;99.90;;;;;;5089776;27;20468;-81
2022/12/18 00:39:02;;;;;;;53.70;18.27;;;-3.90;99.90;;;;;;5137898;27;20429;-81
2022/12/18 00:44:15;;;;;;;53.83;17.63;;;-3.70;99.90;;;;;;5134410;27;20517;-81
2022/12/18 00:46:43;;;;;;;50.27;18.27;;;-2.00;99.90;;;;;;5135016;27;20043;-81
2022/12/18 00:49:09;;;;;;;46.70;17.30;;;-4.00;99.90;;;;;;5117942;27;20053;-81
2022/12/18 00:51:35;;;;;;;51.80;17.63;;;-3.80;99.90;;;;;;5125012;27;20034;-81
2022/12/18 00:54:01;;;;;;;62.47;18.67;;;-4.00;99.90;;;;;;5120734;27;20038;-83
2022/12/18 00:56:27;;;;;;;45.30;16.60;;;-4.00;99.90;;;;;;5103808;27;20073;-83
2022/12/18 00:58:53;;;;;;;54.20;15.30;;;-3.30;99.90;;;;;;5103929;27;20066;-83
2022/12/18 01:01:19;;;;;;;46.00;14.40;;;-1.90;99.90;;;;;;5098909;27;20130;-84
2022/12/18 01:03:46;;;;;;;55.77;18.23;;;-4.30;99.90;;;;;;5117145;27;20047;-83
2022/12/18 01:06:14;;;;;;;57.07;16.17;;;-4.40;99.90;;;;;;5097414;27;20041;-83
2022/12/18 01:08:39;;;;;;;46.97;14.60;;;-4.30;99.90;;;;;;5110437;27;20067;-83
2022/12/18 01:11:15;;;;;;;50.93;15.57;;;-4.20;99.90;;;;;;5110334;27;20070;-83
2022/12/18 01:13:41;;;;;;;47.17;16.77;;;;;;;;;;5120455;27;20560;-83
2022/12/18 01:16:08;;;;;;;54.70;16.50;;;-4.20;99.90;;;;;;5120753;27;20084;-83
2022/12/18 01:18:34;;;;;;;53.97;16.93;;;;;;;;;;5087155;27;20112;-83
2022/12/18 01:21:00;;;;;;;46.87;16.23;;;-4.30;99.90;;;;;;5120657;27;20471;-83
2022/12/18 01:23:26;;;;;;;53.63;17.07;;;-4.30;99.90;;;;;;5098197;27;20078;-83
2022/12/18 01:25:51;;;;;;;43.70;15.57;;;-4.30;99.90;;;;;;5146789;27;20035;-83
2022/12/18 01:28:17;;;;;;;47.93;15.03;;;-4.40;99.90;;;;;;5137563;27;20129;-83
2022/12/18 01:30:43;;;;;;;47.20;15.80;;;;;;;;;;5103139;27;20400;-83
2022/12/18 01:33:09;;;;;;;49.50;16.80;;;-4.40;99.90;;;;;;5103391;27;20437;-83
2022/12/18 01:35:41;;;;;;;42.00;15.07;;;-4.50;99.90;;;;;;5082270;27;20114;-83
2022/12/18 01:38:07;;;;;;;42.70;14.90;;;-4.60;99.90;;;;;;5099662;27;20046;-83
2022/12/18 01:40:34;;;;;;;48.90;15.27;;;;;;;;;;5100107;27;20042;-83
2022/12/18 01:42:59;;;;;;;50.80;16.10;;;-4.50;99.90;;;;;;5116752;27;20047;-83
2022/12/18 01:45:27;;;;;;;44.83;15.40;;;-4.60;99.90;;;;;;5082488;27;20058;-83
2022/12/18 01:48:03;;;;;;;44.40;14.13;;;-4.80;99.90;;;;;;5119399;27;20536;-83
2022/12/18 01:50:39;;;;;;;41.20;14.93;;;-4.60;99.90;;;;;;5107271;27;20039;-83
2022/12/18 01:53:14;;;;;;;;;;;-4.70;99.90;;;;;;5117367;27;20053;-83
2022/12/18 01:55:59;;;;;;;42.50;12.87;;;-5.10;99.90;;;;;;5116857;27;19916;-83
2022/12/18 01:58:32;;;;;;;47.63;16.73;;;-3.20;99.90;;;;;;5120676;22;20139;-83
2022/12/18 02:00:58;;;;;;;43.30;14.60;;;;;;;;;;5088774;28;20283;-83
2022/12/18 02:03:24;;;;;;;36.87;13.30;;;-4.90;99.90;;;;;;5062548;28;20465;-83
2022/12/18 02:06:11;;;;;;;40.43;14.10;;;-5.30;99.90;;;;;;5079305;28;20087;-83
2022/12/18 02:08:36;;;;;;;;;;;-6.40;99.90;;;;;;5089916;27;20494;-83
2022/12/18 02:11:18;;;;;;;41.17;12.60;;;-4.50;99.90;;;;;;5099168;28;19923;-83
2022/12/18 02:13:52;;;;;;;50.07;15.03;;;-5.20;99.90;;;;;;5099145;28;20054;-83
2022/12/18 02:16:37;;;;;;;42.07;14.93;;;-4.10;99.90;;;;;;5089614;28;20043;-83
2022/12/18 02:19:18;;;;;;;51.03;15.20;;;-3.50;99.90;;;;;;5096191;28;20366;-83
2022/12/18 02:22:06;;;;;;;44.63;14.53;;;-5.40;99.90;;;;;;5095846;28;20367;-83
2022/12/18 02:24:51;;;;;;;39.40;13.33;;;-4.90;99.90;;;;;;5095812;28;20047;-83
2022/12/18 02:27:18;;;;;;;44.90;14.50;;;-5.20;99.90;;;;;;5097143;28;20036;-83
2022/12/18 02:29:50;;;;;;;44.93;14.40;;;-5.30;99.90;;;;;;5099155;28;20039;-83
2022/12/18 02:32:20;;;;;;;41.27;14.63;;;-5.20;99.90;;;;;;5115835;28;20535;-83
2022/12/18 02:34:48;;;;;;;42.27;15.57;;;-5.30;99.90;;;;;;5110581;28;20043;-83
2022/12/18 02:37:16;;;;;;;42.03;15.33;;;-5.30;99.90;;;;;;5098328;28;20042;-83
2022/12/18 02:39:44;;;;;;;43.60;16.43;;;-5.30;99.90;;;;;;5090415;28;20050;-83
2022/12/18 02:42:11;;;;;;;52.67;15.83;;;-4.10;99.90;;;;;;5088991;28;20096;-83
2022/12/18 02:44:48;;;;;;;46.03;17.13;;;-5.30;99.90;;;;;;5094035;28;20043;-83
2022/12/18 02:47:16;;;;;;;46.47;15.87;;;-5.30;99.90;;;;;;5108998;28;20533;-83
2022/12/18 02:49:57;;;;;;;42.57;14.67;;;-5.20;99.90;;;;;;5099621;28;20052;-83
2022/12/18 02:52:41;;;;;;;49.53;15.40;;;-5.60;99.90;;;;;;5092187;28;20500;-84
2022/12/18 02:55:19;;;;;;;45.70;16.27;;;-5.40;99.90;;;;;;5104376;28;20070;-84
2022/12/18 02:58:15;;;;;;;55.30;16.53;;;-5.50;99.90;;;;;;5078586;28;20087;-84
2022/12/18 03:00:51;;;;;;;48.27;17.10;;;-5.50;99.90;;;;;;5084394;28;20077;-83
2022/12/18 03:03:32;;;;;;;43.95;17.52;;;-5.50;99.90;;;;;;5098511;28;20512;-84
2022/12/18 03:06:10;;;;;;;45.17;16.70;;;-5.50;99.90;;;;;;5112873;28;20032;-84
2022/12/18 03:08:43;;;;;;;52.00;16.20;;;-5.40;99.90;;;;;;5093377;28;20046;-84
2022/12/18 03:11:11;;;;;;;49.63;15.17;;;-4.20;99.90;;;;;;5082752;28;20067;-85
2022/12/18 03:13:51;;;;;;;49.50;16.57;;;-5.50;99.90;;;;;;5115894;28;20388;-84
2022/12/18 03:16:25;;;;;;;43.73;16.57;;;-5.60;99.90;;;;;;5078710;28;20062;-84
2022/12/18 03:19:22;;;;;;;43.20;15.33;;;-5.50;99.90;;;;;;5078252;28;20044;-84
2022/12/18 03:21:55;;;;;;;42.50;15.15;;;-5.60;99.90;;;;;;5112114;28;20047;-84
2022/12/18 03:24:22;;;;;;;43.73;16.40;;;-4.20;99.90;;;;;;5077915;28;20504;-84
2022/12/18 03:26:54;;;;;;;44.93;16.40;;;-5.70;99.90;;;;;;5086160;28;20035;-84
2022/12/18 03:29:29;;;;;;;44.07;15.43;;;-3.10;99.90;;;;;;5098970;27;20031;-84
2022/12/18 03:32:01;;;;;;;38.22;15.15;;;-5.50;99.90;;;;;;5085568;27;20177;-84
2022/12/18 03:34:31;;;;;;;56.47;16.60;;;-5.70;99.90;;;;;;5082339;28;20575;-84
2022/12/18 03:36:57;;;;;;;49.63;15.67;;;-5.80;99.90;;;;;;5099803;27;20385;-84
2022/12/18 03:39:24;;;;;;;50.40;18.50;;;-5.70;99.90;;;;;;5085271;27;20047;-84
2022/12/18 03:41:58;;;;;;;43.33;15.30;;;-5.60;99.90;;;;;;5102233;27;20072;-84
2022/12/18 03:44:41;;;;;;;48.37;17.13;;;-5.80;99.90;;;;;;5101712;27;20146;-84
2022/12/18 03:47:24;;;;;;;48.83;14.73;;;-5.80;99.90;;;;;;5116513;27;20126;-84
2022/12/18 03:49:55;;;;;;;46.50;16.07;;;-5.20;99.90;;;;;;5081748;28;20084;-84
2022/12/18 03:52:35;;;;;;;50.57;17.70;;;-5.90;99.90;;;;;;5089591;28;20039;-84
2022/12/18 03:55:03;;;;;;;47.07;16.20;;;-5.90;99.90;;;;;;5081551;27;20043;-85
2022/12/18 03:57:31;;;;;;;53.30;17.30;;;-6.30;99.90;;;;;;5074640;27;20392;-81
2022/12/18 04:00:06;;;;;;;47.30;15.27;;;-4.80;99.90;;;;;;5117981;27;20044;-81
2022/12/18 04:02:34;;;;;;;45.17;15.30;;;-4.00;99.90;;;;;;5104488;27;20389;-81
2022/12/18 04:05:04;;;;;;;57.47;16.00;;;-6.20;99.90;;;;;;5117380;27;20493;-81
2022/12/18 04:07:30;;;;;;;47.03;16.43;;;-6.00;99.90;;;;;;5095013;27;20045;-81
2022/12/18 04:09:58;;;;;;;50.30;15.80;;;-5.90;99.90;;;;;;5101033;27;20043;-81
2022/12/18 04:12:26;;;;;;;46.10;16.73;;;-6.10;99.90;;;;;;5100318;27;20119;-81
2022/12/18 04:14:52;;;;;;;53.03;18.83;;;;;;;;;;5101968;27;20070;-81
2022/12/18 04:17:18;;;;;;;45.87;15.27;;;-5.90;99.90;;;;;;5108792;28;20050;-81
2022/12/18 04:19:47;;;;;;;50.53;16.53;;;-6.00;99.90;;;;;;5064378;28;20058;-81
2022/12/18 04:22:15;;;;;;;46.40;17.53;;;-6.20;99.90;;;;;;5064662;28;20035;-81
2022/12/18 04:24:41;;;;;;;53.60;17.17;;;-3.40;99.90;;;;;;5097468;28;20050;-81
2022/12/18 04:27:07;;;;;;;46.33;16.20;;;-6.20;99.90;;;;;;5094686;27;20043;-81
2022/12/18 04:29:33;;;;;;;43.07;15.10;;;-6.30;99.90;;;;;;5104720;28;20036;-83
2022/12/18 04:31:59;;;;;;;49.93;17.57;;;-5.50;99.90;;;;;;5063907;28;20538;-83
2022/12/18 04:34:24;;;;;;;47.77;16.13;;;-6.00;99.90;;;;;;5081084;27;20040;-83
2022/12/18 04:36:50;;;;;;;52.17;16.27;;;;;;;;;;5047361;28;20043;-83
2022/12/18 04:39:19;;;;;;;54.93;17.43;;;-6.00;99.90;;;;;;5078921;27;20043;-83
2022/12/18 04:41:45;;;;;;;40.47;14.37;;;-6.10;99.90;;;;;;5100006;27;20090;-84
2022/12/18 04:44:11;;;;;;;40.60;14.40;;;-4.90;99.90;;;;;;5067012;27;20085;-84
2022/12/18 04:46:36;;;;;;;43.43;17.07;;;-5.70;99.90;;;;;;5100576;27;20087;-84
2022/12/18 04:49:05;;;;;;;50.20;16.93;;;-6.20;99.90;;;;;;5075094;28;20035;-84
2022/12/18 04:51:30;;;;;;;53.37;17.83;;;-5.90;99.90;;;;;;5075074;28;20039;-83
2022/12/18 04:53:56;;;;;;;47.20;17.17;;;-6.00;99.90;;;;;;5098950;27;20161;-84
2022/12/18 04:56:22;;;;;;;45.63;16.97;;;-6.10;99.90;;;;;;5100247;27;20045;-83
2022/12/18 04:58:48;;;;;;;48.17;16.57;;;-6.10;99.90;;;;;;5098607;27;20130;-83
2022/12/18 05:01:15;;;;;;;45.27;17.80;;;-6.00;99.90;;;;;;5093928;27;20064;-83
2022/12/18 05:03:41;;;;;;;38.67;13.77;;;-3.90;99.90;;;;;;5117350;27;20047;-84
2022/12/18 05:06:08;;;;;;;51.50;16.30;;;-3.70;99.90;;;;;;5117295;27;20035;-85
2022/12/18 05:08:33;;;;;;;45.10;15.83;;;-6.40;99.90;;;;;;5100418;27;20427;-84
2022/12/18 05:11:04;;;;;;;42.87;15.57;;;-6.40;99.90;;;;;;5098267;27;20031;-84
2022/12/18 05:13:31;;;;;;;38.40;14.23;;;-6.10;99.90;;;;;;5100385;27;20067;-84
2022/12/18 05:15:56;;;;;;;37.20;14.63;;;-6.20;99.90;;;;;;5099903;27;20043;-84
2022/12/18 05:18:26;;;;;;;43.20;16.00;;;-6.30;99.90;;;;;;5066720;27;20049;-85
2022/12/18 05:20:53;;;;;;;45.90;13.77;;;-6.30;99.90;;;;;;5098168;27;20118;-84
2022/12/18 05:23:20;;;;;;;38.73;13.33;;;-4.50;99.90;;;;;;5099961;27;20035;-84
2022/12/18 05:25:58;;;;;;;41.30;12.87;;;-7.00;99.90;;;;;;5066989;28;20118;-84
2022/12/18 05:28:26;;;;;;;43.53;14.17;;;-6.30;99.90;;;;;;5079396;28;20503;-83
2022/12/18 05:30:55;;;;;;;38.77;14.03;;;-6.40;99.90;;;;;;5075487;28;20036;-83
2022/12/18 05:33:23;;;;;;;38.33;14.50;;;-6.20;99.90;;;;;;5079206;28;20039;-83
2022/12/18 05:35:58;;;;;;;40.17;13.80;;;-6.40;99.90;;;;;;5062762;28;20048;-83
2022/12/18 05:38:26;;;;;;;40.90;15.53;;;-6.30;99.90;;;;;;5096245;28;20031;-83
2022/12/18 05:40:52;;;;;;;40.20;12.70;;;-6.50;99.90;;;;;;5064055;28;20035;-82
2022/12/18 05:43:21;;;;;;;38.77;14.10;;;-5.20;99.90;;;;;;5099355;27;20035;-83
2022/12/18 05:45:48;;;;;;;35.53;12.93;;;-5.10;99.90;;;;;;5116663;27;20091;-83
2022/12/18 05:48:14;;;;;;;37.77;13.40;;;-6.60;99.90;;;;;;5079451;28;20043;-83
2022/12/18 05:50:42;;;;;;;32.30;12.87;;;-6.50;99.90;;;;;;5096267;28;20039;-83
2022/12/18 05:53:08;;;;;;;37.37;13.17;;;-6.60;99.90;;;;;;5088223;28;20038;-84
2022/12/18 05:55:40;;;;;;;34.30;12.40;;;-6.50;99.90;;;;;;5079077;28;20044;-85
2022/12/18 05:58:07;;;;;;;30.63;12.00;;;-6.50;99.90;;;;;;5082346;28;20058;-85
2022/12/18 06:00:39;;;;;;;32.20;12.53;;;-6.50;99.90;;;;;;5112689;28;20051;-85
2022/12/18 06:03:06;;;;;;;35.27;12.70;;;-5.50;99.90;;;;;;5094121;28;20036;-84
2022/12/18 06:05:40;;;;;;;34.40;13.30;;;-8.30;99.90;;;;;;5079249;28;20040;-85
2022/12/18 06:08:05;;;;;;;29.13;12.23;;;-5.50;99.90;;;;;;5112776;28;20093;-84
2022/12/18 06:10:32;;;;;;;32.17;12.20;;;;;;;;;;5062602;28;20040;-81
2022/12/18 06:13:08;;;;;;;35.37;12.03;;;-6.60;99.90;;;;;;5095726;28;20065;-81
2022/12/18 06:15:37;;;;;;;32.03;11.37;;;-6.30;99.90;;;;;;5094357;28;20048;-81
2022/12/18 06:18:03;;;;;;;32.77;11.20;;;-6.70;99.90;;;;;;5072968;28;20047;-81
2022/12/18 06:20:33;;;;;;;34.00;11.70;;;-6.60;99.90;;;;;;5059488;28;20035;-81
2022/12/18 06:22:59;;;;;;;35.87;11.90;;;-3.40;99.90;;;;;;5075358;28;20043;-81
2022/12/18 06:25:25;;;;;;;30.37;13.87;;;-6.70;99.90;;;;;;5080590;28;20051;-81
2022/12/18 06:27:51;;;;;;;32.17;12.17;;;-6.40;99.90;;;;;;5112878;28;20048;-81
2022/12/18 06:30:20;;;;;;;34.03;13.17;;;-6.70;99.90;;;;;;5060338;28;20040;-81
2022/12/18 06:32:48;;;;;;;31.70;12.40;;;-6.60;99.90;;;;;;5105984;28;20443;-81
2022/12/18 06:35:14;;;;;;;35.13;12.23;;;-4.60;99.90;;;;;;5095656;28;20039;-81
2022/12/18 06:37:40;;;;;;;39.10;14.33;;;-6.50;99.90;;;;;;5060541;28;20055;-85
2022/12/18 06:40:06;;;;;;;27.60;11.00;;;-7.80;99.90;;;;;;5091278;28;20036;-84
2022/12/18 06:42:32;;;;;;;32.13;11.63;;;;;;;;;;5068316;28;20418;-81
2022/12/18 06:44:58;;;;;;;34.73;13.03;;;-6.50;99.90;;;;;;5067580;28;20123;-81
2022/12/18 06:47:24;;;;;;;30.37;11.70;;;-5.20;99.90;;;;;;5075118;28;20166;-81
2022/12/18 06:49:50;;;;;;;30.63;12.20;;;-6.60;99.90;;;;;;5105376;28;20112;-81
2022/12/18 06:52:15;;;;;;;30.63;12.13;;;-6.60;99.90;;;;;;5073874;28;20101;-81
2022/12/18 06:54:41;;;;;;;31.33;13.67;;;-8.80;99.90;;;;;;5074235;28;20048;-81
2022/12/18 06:57:07;;;;;;;32.50;13.70;;;-6.60;99.90;;;;;;5064875;28;20166;-81
2022/12/18 06:59:33;;;;;;;34.53;13.23;;;-7.80;99.90;;;;;;5067765;28;20047;-84
2022/12/18 07:01:59;;;;;;;33.10;11.90;;;-6.70;99.90;;;;;;5051383;28;20089;-84
2022/12/18 07:04:30;;;;;;;27.07;10.97;;;-5.50;99.90;;;;;;5072671;28;20040;-84
2022/12/18 07:06:55;;;;;;;29.53;12.30;;;-6.70;99.90;;;;;;5105482;27;20033;-84
2022/12/18 07:09:21;;;;;;;33.33;11.33;;;;;;;;;;5102481;27;20076;-84
2022/12/18 07:11:47;;;;;;;32.53;11.37;;;-6.70;99.90;;;;;;5070192;28;20039;-84
2022/12/18 07:14:13;;;;;;;30.30;12.40;;;-5.30;99.90;;;;;;5100521;27;20052;-84
2022/12/18 07:16:39;;;;;;;35.10;13.23;;;-6.70;99.90;;;;;;5101395;27;20035;-81
2022/12/18 07:19:04;;;;;;;33.40;11.90;;;-6.70;99.90;;;;;;5101984;27;20087;-81
2022/12/18 07:21:30;;;;;;;34.23;12.00;;;-6.60;99.90;;;;;;5066144;27;20043;-81
2022/12/18 07:23:56;;;;;;;35.33;13.13;;;-6.60;99.90;;;;;;5100749;27;20039;-81
2022/12/18 07:26:22;;;;;;;32.83;11.70;;;-6.50;99.90;;;;;;5092576;27;20040;-81
2022/12/18 07:28:48;;;;;;;27.90;11.70;;;;;;;;;;5074844;27;20072;-81
2022/12/18 07:31:17;;;;;;;34.00;12.40;;;-6.40;99.90;;;;;;5075984;27;20058;-81
2022/12/18 07:33:46;;;;;;;38.17;12.80;;;-4.80;99.90;;;;;;5092364;27;20039;-81
2022/12/18 07:36:13;;;;;;;32.57;11.77;;;-6.40;99.90;;;;;;5090840;27;20520;-81
2022/12/18 07:38:39;;;;;;;30.07;11.00;;;-6.00;99.90;;;;;;5075369;27;20043;-81
2022/12/18 07:41:11;;;;;;;30.63;12.10;;;-6.40;99.90;;;;;;5089280;27;20044;-81
2022/12/18 07:43:38;;;;;;;33.07;11.93;;;-6.30;99.90;;;;;;5091598;27;20039;-81
2022/12/18 07:46:08;;;;;;;26.97;11.17;;;-7.10;99.90;;;;;;5104009;27;20125;-81
2022/12/18 07:48:34;;;;;;;28.23;11.53;;;-6.50;99.90;;;;;;5092804;27;20474;-81
2022/12/18 07:51:00;;;;;;;27.07;10.80;;;-4.70;99.90;;;;;;5089203;28;20435;-81
2022/12/18 07:53:26;;;;;;;27.73;10.90;;;-6.30;99.90;;;;;;5088396;28;20110;-81
2022/12/18 07:56:00;;;;;;;30.27;10.87;;;-6.50;99.90;;;;;;5104058;27;20113;-81
2022/12/18 07:58:28;;;;;;;29.40;11.37;;;-6.40;99.90;;;;;;5073658;27;20066;-81
2022/12/18 08:01:01;;;;;;;33.10;10.73;;;-4.70;99.90;;;;;;5090084;27;20043;-81
2022/12/18 08:03:29;;;;;;;30.67;11.03;;;-4.00;99.90;;;;;;5095281;27;20062;-81
2022/12/18 08:06:00;;;;;;;28.47;10.60;;;-6.10;99.90;;;;;;5076129;28;20032;-85
2022/12/18 08:08:29;;;;;;;26.67;10.23;;;-6.10;99.90;;;;;;5081470;28;20039;-85
2022/12/18 08:10:55;;;;;;;23.20;9.67;;;;;;;;;;5086922;27;20046;-85
2022/12/18 08:13:21;;;;;;;25.87;11.10;;;-5.30;99.90;;;;;;5094962;27;20216;-84
2022/12/18 08:16:00;;;;;;;30.47;11.23;;;-5.90;99.90;;;;;;5088567;28;20396;-85
2022/12/18 08:18:30;;;;;;;30.83;10.90;;;-5.70;99.90;;;;;;5066669;28;20047;-84
2022/12/18 08:20:55;;;;;;;32.53;10.60;;;-5.40;99.90;;;;;;5085910;27;20058;-85
2022/12/18 08:23:22;;;;;;;29.60;12.93;;;-5.50;99.90;;;;;;5099582;27;20071;-83
2022/12/18 08:25:47;;;;;;;26.60;11.30;;;-4.60;99.90;;;;;;5101024;27;20130;-83
2022/12/18 08:28:13;;;;;;;22.17;11.30;;;-5.40;99.90;;;;;;5136433;27;20118;-83
2022/12/18 08:30:39;;;;;;;27.17;10.00;;;-5.30;99.90;;;;;;5077842;28;20035;-83
2022/12/18 08:33:05;;;;;;;27.27;9.77;;;-5.20;99.90;;;;;;5080521;28;20039;-85
2022/12/18 08:35:36;;;;;;;32.17;10.40;;;-5.10;99.90;;;;;;5090937;28;20123;-85
2022/12/18 08:38:01;;;;;;;23.53;10.37;;;-5.10;99.90;;;;;;5080267;28;20401;-85
2022/12/18 08:40:27;;;;;;;28.93;11.33;;;-5.10;99.90;;;;;;5077640;28;20046;-86
2022/12/18 08:45:37;;;;;;;23.77;9.67;;;-3.40;99.90;;;;;;5104762;28;20048;-85
2022/12/18 08:48:03;;;;;;;27.17;9.87;;;-4.90;99.90;;;;;;5113111;27;20484;-85
2022/12/18 08:50:28;;;;;;;23.40;9.60;;;-4.80;99.90;;;;;;5081745;27;20035;-85
2022/12/18 08:52:54;;;;;;;20.77;8.27;;;-4.70;99.90;;;;;;5096856;27;20084;-85
2022/12/18 08:55:20;;;;;;;23.97;9.57;;;-4.60;99.90;;;;;;5082266;27;20039;-84
2022/12/18 08:57:49;;;;;;;29.73;10.60;;;-4.40;99.90;;;;;;5099946;27;20051;-84
2022/12/18 09:00:15;;;;;;;22.37;9.80;;;-4.20;99.90;;;;;;5072662;28;20048;-84
2022/12/18 09:02:41;;;;;;;23.90;9.57;;;-4.00;99.90;;;;;;5063239;28;20522;-84
2022/12/18 09:05:07;;;;;;;24.27;9.23;;;;;;;;;;5063168;28;20052;-84
2022/12/18 09:07:33;;;;;;;28.47;10.83;;;-3.60;99.90;;;;;;5101227;27;20451;-84
2022/12/18 09:09:59;;;;;;;20.57;9.70;;;-3.50;99.90;;;;;;5112113;27;20110;-83
2022/12/18 09:12:25;;;;;;;25.03;8.90;;;-3.40;99.90;;;;;;5117142;27;20038;-84
2022/12/18 09:14:50;;;;;;;22.43;7.77;;;-3.40;99.90;;;;;;5100966;28;20077;-83
2022/12/18 09:17:16;;;;;;;21.07;8.07;;;-2.90;99.90;;;;;;5059130;28;20475;-83
2022/12/18 09:19:42;;;;;;;19.87;8.43;;;-3.20;99.90;;;;;;5094785;27;20400;-84
2022/12/18 09:22:07;;;;;;;20.60;8.67;;;-3.20;99.90;;;;;;5071762;27;20065;-84
2022/12/18 09:24:33;;;;;;;18.83;8.27;;;-3.00;99.90;;;;;;5066427;27;20043;-84
2022/12/18 09:26:59;;;;;;;15.10;7.00;;;-2.90;99.90;;;;;;5081050;28;20395;-84
2022/12/18 09:29:24;;;;;;;18.30;9.27;;;-0.90;99.90;;;;;;5079479;28;20035;-84
2022/12/18 09:31:50;;;;;;;20.57;8.57;;;-0.40;99.90;;;;;;5100573;28;20042;-84
2022/12/18 09:34:16;;;;;;;18.70;8.53;;;-0.70;99.90;;;;;;5079442;28;20071;-84
2022/12/18 09:36:42;;;;;;;18.20;8.73;;;-2.50;99.90;;;;;;5096301;28;20032;-84
2022/12/18 09:39:08;;;;;;;21.50;8.37;;;-1.10;99.90;;;;;;5096206;28;20051;-84
2022/12/18 09:41:45;;;;;;;16.83;8.57;;;-2.30;99.90;;;;;;5083498;27;20694;-84
2022/12/18 09:44:25;;;;;;;14.67;6.90;;;-2.10;99.90;;;;;;5116632;27;20508;-84
2022/12/18 09:47:03;;;;;;;16.73;7.23;;;-2.20;99.90;;;;;;5099640;27;20058;-85
2022/12/18 09:49:34;;;;;;;18.03;8.00;;;-2.10;99.90;;;;;;5108252;28;20384;-84
2022/12/18 09:52:21;;;;;;;17.10;7.93;;;-0.90;99.90;;;;;;5082042;28;20027;-84
2022/12/18 09:55:05;;;;;;;13.30;6.73;;;-1.90;99.90;;;;;;5096586;28;20039;-84
2022/12/18 09:57:35;;;;;;;12.77;6.57;;;-1.50;99.90;;;;;;5092594;28;20052;-84
2022/12/18 10:00:15;;;;;;;13.47;7.13;;;-0.10;99.90;;;;;;5075631;28;20504;-84
2022/12/18 10:02:41;;;;;;;11.47;6.77;;;-1.10;99.90;;;;;;5098351;28;20051;-83
2022/12/18 10:05:18;;;;;;;14.73;5.53;;;-1.20;99.90;;;;;;5112834;28;20040;-82
2022/12/18 10:07:59;;;;;;;14.87;7.63;;;-1.60;99.90;;;;;;5092528;28;20039;-82
2022/12/18 10:10:42;;;;;;;16.30;7.53;;;-1.40;99.90;;;;;;5092501;28;20101;-84
2022/12/18 10:13:16;;;;;;;12.77;5.60;;;-1.90;99.90;;;;;;5080962;28;20067;-84
2022/12/18 10:16:07;;;;;;;14.83;6.53;;;-1.80;99.90;;;;;;5095879;28;20134;-84
2022/12/18 10:18:54;;;;;;;14.07;6.60;;;-2.00;99.90;;;;;;5095774;28;20039;-84
2022/12/18 10:21:46;;;;;;;;;;;-2.00;99.90;;;;;;5092747;28;20052;-82
2022/12/18 10:24:39;;;;;;;11.87;5.93;;;-2.00;99.90;;;;;;5068963;28;19924;-82
2022/12/18 10:27:16;;;;;;;11.27;6.33;;;-2.10;99.90;;;;;;5099152;28;20035;-82
2022/12/18 10:29:43;;;;;;;;;;;-2.00;99.90;;;;;;5096022;28;20051;-82
2022/12/18 10:32:16;;;;;;;16.93;6.70;;;-0.60;99.90;;;;;;5112822;28;20277;-82
2022/12/18 10:34:45;;;;;;;16.87;6.67;;;-2.30;99.90;;;;;;5101283;28;20044;-82
2022/12/18 10:37:19;;;;;;;12.33;7.00;;;-2.30;99.90;;;;;;5092191;28;20051;-84
2022/12/18 10:39:46;;;;;;;14.57;5.67;;;-2.30;99.90;;;;;;5078259;28;20043;-84
2022/12/18 10:42:19;;;;;;;15.67;7.13;;;-0.60;99.90;;;;;;5080501;28;20046;-84
2022/12/18 10:44:45;;;;;;;12.93;7.23;;;-0.90;99.90;;;;;;5079204;28;20040;-84
2022/12/18 10:47:15;;;;;;;16.33;6.90;;;-2.40;99.90;;;;;;5095904;28;20487;-84
2022/12/18 10:49:50;;;;;;;11.87;5.73;;;-2.40;99.90;;;;;;5099016;28;20036;-84
2022/12/18 10:52:22;;;;;;;16.48;7.10;;;-2.30;99.90;;;;;;5088217;28;20077;-84
2022/12/18 10:55:04;;;;;;;13.50;6.73;;;-2.30;99.90;;;;;;5098389;28;20040;-84
2022/12/18 10:57:38;;;;;;;12.40;6.70;;;-1.40;99.90;;;;;;5109128;28;20139;-85
2022/12/18 11:00:27;;;;;;;15.23;7.10;;;-2.30;99.90;;;;;;5099426;28;20043;-84
2022/12/18 11:02:53;;;;;;;13.50;6.97;;;-2.30;99.90;;;;;;5083585;28;20448;-84
2022/12/18 11:05:26;;;;;;;16.37;7.27;;;-2.30;99.90;;;;;;5116228;28;20044;-84
2022/12/18 11:07:53;;;;;;;17.60;6.47;;;-0.90;99.90;;;;;;5115871;28;20055;-84
2022/12/18 11:10:22;;;;;;;14.93;7.00;;;-2.40;99.90;;;;;;5082481;28;20035;-84
2022/12/18 11:12:48;;;;;;;11.93;6.13;;;-2.60;99.90;;;;;;5099073;28;20040;-84
2022/12/18 11:15:21;;;;;;;11.00;6.20;;;-2.30;99.90;;;;;;5079870;28;20071;-84
2022/12/18 11:17:51;;;;;;;13.40;5.77;;;-2.30;99.90;;;;;;5078742;28;20044;-84
2022/12/18 11:20:29;;;;;;;11.90;6.37;;;-1.80;99.90;;;;;;5103172;28;20039;-84
2022/12/18 11:22:58;;;;;;;10.93;5.13;;;-2.30;99.90;;;;;;5102416;28;20055;-84
2022/12/18 11:25:26;;;;;;;10.13;5.20;;;-2.20;99.90;;;;;;5079528;28;20040;-83
2022/12/18 11:28:04;;;;;;;11.20;4.90;;;-2.20;99.90;;;;;;5095276;28;20040;-82
2022/12/18 11:30:31;;;;;;;12.83;5.20;;;-2.10;99.90;;;;;;5078316;28;20478;-82
2022/12/18 11:33:12;;;;;;;11.50;5.27;;;-2.00;99.90;;;;;;5095014;28;20051;-83
2022/12/18 11:35:55;;;;;;;10.73;4.73;;;-1.20;99.90;;;;;;5105267;28;20040;-83
2022/12/18 11:38:28;;;;;;;10.00;5.20;;;-2.30;99.90;;;;;;5115327;28;20554;-82
2022/12/18 11:40:57;;;;;;;9.10;5.10;;;-2.00;99.90;;;;;;5107888;28;20139;-83
2022/12/18 11:43:37;;;;;;;9.47;5.10;;;-2.00;99.90;;;;;;5094704;28;20130;-84
2022/12/18 11:46:26;;;;;;;13.03;5.67;;;-2.00;99.90;;;;;;5104970;28;20075;-84
2022/12/18 11:49:29;;;;;;;10.57;5.23;;;-2.00;99.90;;;;;;5096963;28;20416;-84
2022/12/18 11:52:22;;;;;;;12.60;5.77;;;-1.80;99.90;;;;;;5087521;28;20040;-85
2022/12/18 11:54:52;;;;;;;11.77;5.00;;;-1.90;99.90;;;;;;5090507;28;20052;-84
2022/12/18 11:57:56;;;;;;;8.57;4.53;;;-1.90;99.90;;;;;;5101197;27;20474;-84
2022/12/18 12:00:23;;;;;;;13.47;5.47;;;-1.80;99.90;;;;;;5086272;27;20445;-86
2022/12/18 12:03:15;;;;;;;9.87;4.73;;;-2.40;99.90;;;;;;5095071;27;20393;-86
2022/12/18 12:06:00;;;;;;;11.13;4.33;;;-1.50;99.90;;;;;;5118057;27;20096;-86
2022/12/18 12:08:49;;;;;;;10.47;4.50;;;-1.70;99.90;;;;;;5092933;27;20047;-86
2022/12/18 12:11:37;;;;;;;7.97;4.60;;;-1.70;99.90;;;;;;5100944;27;20047;-86
2022/12/18 12:14:24;;;;;;;10.17;4.90;;;-2.40;99.90;;;;;;5086262;27;20458;-87
2022/12/18 12:17:04;;;;;;;8.30;4.30;;;-1.70;99.90;;;;;;5088930;28;20038;-85
2022/12/18 12:19:47;;;;;;;8.87;4.73;;;-1.70;99.90;;;;;;5107685;28;20040;-85
2022/12/18 12:22:43;;;;;;;9.17;4.27;;;-1.70;99.90;;;;;;5100830;27;20050;-85
2022/12/18 12:25:23;;;;;;;8.57;4.13;;;-0.50;99.90;;;;;;5086432;27;20043;-85
2022/12/18 12:28:16;;;;;;;10.03;4.20;;;-1.60;99.90;;;;;;5097579;28;20044;-84
2022/12/18 12:31:02;;;;;;;7.83;4.07;;;-1.60;99.90;;;;;;5080314;28;20035;-84
2022/12/18 12:33:27;;;;;;;7.50;3.80;;;-0.90;99.90;;;;;;5097065;28;20424;-86
2022/12/18 12:36:19;;;;;;;9.23;4.60;;;-1.50;99.90;;;;;;5083187;28;20047;-86
2022/12/18 12:38:51;;;;;;;7.90;3.90;;;-1.40;99.90;;;;;;5112920;27;20407;-87
2022/12/18 12:44:13;;;;;;;6.57;3.30;;;-1.30;99.90;;;;;;5117099;27;20047;-86
2022/12/18 12:46:41;;;;;;;5.70;3.20;;;-0.40;99.90;;;;;;5117687;27;20051;-87
2022/12/18 12:49:20;;;;;;;5.10;3.33;;;-0.20;99.90;;;;;;5100200;27;20043;-85
2022/12/18 12:51:54;;;;;;;7.73;3.47;;;-1.20;99.90;;;;;;5113167;27;20478;-84
2022/12/18 12:54:24;;;;;;;8.47;3.67;;;-1.30;99.90;;;;;;5100653;27;20047;-84
2022/12/18 12:57:16;;;;;;;8.20;3.60;;;-1.20;99.90;;;;;;5091289;28;20035;-84
2022/12/18 12:59:56;;;;;;;7.93;4.00;;;-1.20;99.90;;;;;;5108542;27;20054;-84
2022/12/18 13:02:27;;;;;;;10.03;4.00;;;-1.20;99.90;;;;;;5117062;27;20047;-84
2022/12/18 13:05:05;;;;;;;9.17;3.07;;;-1.20;99.90;;;;;;5098166;27;20039;-84